createdAt,value
2022-11-29T00:00:38.812Z,73.50
2022-11-29T00:05:58.608Z,71.38
2022-11-29T00:11:10.107Z,60.22
2022-11-29T00:16:15.906Z,68.20
2022-11-29T00:21:19.853Z,64.78
2022-11-29T00:26:25.277Z,65.70
2022-11-29T00:31:32.793Z,62.05
2022-11-29T00:36:37.597Z,62.45
2022-11-29T00:41:43.683Z,77.32
2022-11-29T00:46:49.410Z,80.07
2022-11-29T00:51:56.162Z,69.30
2022-11-29T00:57:09.646Z,63.63
2022-11-29T01:02:17.092Z,66.93
2022-11-29T01:07:22.269Z,79.30
2022-11-29T01:12:27.651Z,89.15
2022-11-29T01:17:31.816Z,122.13
2022-11-29T01:22:36.743Z,89.43
2022-11-29T01:27:42.628Z,79.88
2022-11-29T01:37:50.309Z,52.70
2022-11-29T01:42:56.928Z,74.88
2022-11-29T01:48:01.028Z,55.25
2022-11-29T01:53:05.889Z,60.63
2022-11-29T01:58:11.321Z,58.90
2022-11-29T02:03:17.644Z,65.63
2022-11-29T02:08:26.468Z,50.75
2022-11-29T02:13:39.199Z,46.42
2022-11-29T02:18:59.309Z,44.22
2022-11-29T02:24:27.530Z,43.30
2022-11-29T02:29:47.704Z,46.80
2022-11-29T02:35:05.226Z,44.75
2022-11-29T02:40:26.797Z,41.45
2022-11-29T02:45:41.171Z,38.08
2022-11-29T02:50:56.097Z,40.38
2022-11-29T02:56:11.523Z,46.88
2022-11-29T03:01:22.397Z,44.03
2022-11-29T03:06:37.373Z,38.97
2022-11-29T03:11:49.855Z,42.22
2022-11-29T03:17:05.683Z,35.88
2022-11-29T03:22:21.838Z,40.42
2022-11-29T03:27:31.877Z,42.08
2022-11-29T03:32:46.144Z,37.90
2022-11-29T03:37:59.062Z,42.33
2022-11-29T03:43:07.986Z,41.80
2022-11-29T03:48:18.687Z,38.85
2022-11-29T03:53:31.304Z,43.22
2022-11-29T03:58:51.397Z,35.83
2022-11-29T04:04:32.719Z,42.00
2022-11-29T04:09:59.690Z,32.97
2022-11-29T04:15:49.591Z,36.13
2022-11-29T04:21:27.830Z,33.10
2022-11-29T04:27:06.659Z,31.05
2022-11-29T04:32:27.218Z,36.05
2022-11-29T04:37:58.005Z,35.88
2022-11-29T04:43:16.559Z,31.90
2022-11-29T04:48:39.374Z,32.58
2022-11-29T04:53:56.139Z,31.50
2022-11-29T04:59:12.273Z,35.22
2022-11-29T05:04:26.490Z,26.50
2022-11-29T05:09:52.706Z,29.88
2022-11-29T05:15:25.049Z,33.72
2022-11-29T05:20:43.102Z,37.20
2022-11-29T05:25:56.188Z,32.28
2022-11-29T05:31:26.241Z,29.63
2022-11-29T05:36:40.146Z,29.75
2022-11-29T05:42:05.466Z,30.98
2022-11-29T05:47:21.383Z,29.55
2022-11-29T05:52:42.003Z,30.55
2022-11-29T05:58:00.279Z,30.55
2022-11-29T06:03:21.763Z,32.20
2022-11-29T06:08:39.282Z,28.88
2022-11-29T06:14:03.492Z,27.67
2022-11-29T06:19:53.687Z,25.92
2022-11-29T06:25:19.224Z,34.78
2022-11-29T06:30:31.161Z,30.98
2022-11-29T06:35:47.153Z,45.95
2022-11-29T06:46:15.805Z,36.35
2022-11-29T06:51:27.159Z,29.23
2022-11-29T06:56:40.906Z,28.33
2022-11-29T07:01:52.792Z,30.85
2022-11-29T07:06:57.323Z,33.67
2022-11-29T07:12:03.463Z,26.48
2022-11-29T07:17:22.467Z,28.95
2022-11-29T07:22:44.651Z,26.10
2022-11-29T07:28:03.846Z,32.05
2022-11-29T07:33:21.264Z,30.17
2022-11-29T07:38:47.075Z,32.10
2022-11-29T07:44:06.387Z,36.47
2022-11-29T07:49:13.203Z,31.50
2022-11-29T07:54:22.234Z,25.83
2022-11-29T07:59:31.218Z,31.50
2022-11-29T08:04:45.053Z,33.63
2022-11-29T08:09:53.414Z,32.67
2022-11-29T08:15:02.028Z,27.98
2022-11-29T08:20:10.444Z,27.50
2022-11-29T08:25:15.311Z,31.30
2022-11-29T08:30:22.366Z,31.60
2022-11-29T08:35:26.638Z,31.50
2022-11-29T08:40:30.529Z,33.03
2022-11-29T08:45:35.772Z,33.55
2022-11-29T08:50:39.728Z,33.40
2022-11-29T08:55:46.572Z,38.75
2022-11-29T09:00:53.000Z,39.15
2022-11-29T09:05:57.687Z,33.10
2022-11-29T09:11:02.081Z,33.13
2022-11-29T09:16:11.111Z,28.63
2022-11-29T09:21:16.103Z,33.95
2022-11-29T09:26:21.179Z,30.27
2022-11-29T09:31:27.688Z,29.43
2022-11-29T09:36:32.678Z,27.92
2022-11-29T09:41:49.111Z,31.47
2022-11-29T09:47:05.392Z,31.95
2022-11-29T09:52:20.757Z,32.55
2022-11-29T09:57:27.190Z,32.30
2022-11-29T10:02:40.425Z,29.48
2022-11-29T10:07:49.792Z,25.63
2022-11-29T10:12:57.745Z,31.35
2022-11-29T10:18:13.418Z,32.63
2022-11-29T10:23:23.129Z,36.90
2022-11-29T10:28:31.408Z,25.85
2022-11-29T10:33:40.984Z,30.38
2022-11-29T10:38:47.083Z,29.30
2022-11-29T10:43:55.666Z,36.83
2022-11-29T10:49:04.306Z,35.20
2022-11-29T10:54:29.846Z,27.85
2022-11-29T10:59:34.237Z,30.00
2022-11-29T11:04:47.110Z,29.45
2022-11-29T11:09:54.845Z,36.20
2022-11-29T11:15:17.727Z,32.08
2022-11-29T11:20:24.691Z,27.52
2022-11-29T11:25:31.589Z,30.88
2022-11-29T11:30:35.991Z,31.42
2022-11-29T11:35:42.851Z,32.78
2022-11-29T11:40:46.923Z,35.05
2022-11-29T11:45:54.651Z,32.28
2022-11-29T11:51:02.486Z,31.65
2022-11-29T11:56:09.425Z,31.50
2022-11-29T12:01:38.282Z,30.58
2022-11-29T12:06:52.349Z,32.05
2022-11-29T12:12:05.984Z,34.42
2022-11-29T12:17:21.848Z,27.30
2022-11-29T12:27:37.447Z,26.35
2022-11-29T12:33:07.789Z,33.22
2022-11-29T12:38:27.591Z,29.60
2022-11-29T12:43:47.666Z,32.28
2022-11-29T12:49:00.825Z,34.17
2022-11-29T12:54:21.911Z,31.20
2022-11-29T12:59:39.744Z,35.30
2022-11-29T13:04:58.121Z,30.42
2022-11-29T13:10:29.598Z,36.03
2022-11-29T13:15:42.799Z,34.13
2022-11-29T13:20:52.297Z,38.25
2022-11-29T13:26:00.591Z,34.90
2022-11-29T13:31:08.039Z,29.25
2022-11-29T13:36:19.315Z,37.47
2022-11-29T13:41:32.307Z,33.90
2022-11-29T13:46:47.894Z,35.95
2022-11-29T13:52:05.696Z,31.80
2022-11-29T13:57:11.717Z,36.28
2022-11-29T14:02:29.806Z,30.13
2022-11-29T14:07:35.217Z,33.22
2022-11-29T14:12:45.242Z,35.35
2022-11-29T14:17:55.165Z,38.03
2022-11-29T14:23:16.731Z,40.10
2022-11-29T14:28:33.853Z,33.88
2022-11-29T14:34:02.500Z,30.25
2022-11-29T14:39:24.012Z,35.13
2022-11-29T14:44:32.212Z,38.50
2022-11-29T14:49:43.399Z,35.05
2022-11-29T14:54:57.286Z,34.92
2022-11-29T15:00:04.088Z,33.63
2022-11-29T15:05:17.315Z,44.63
2022-11-29T15:10:25.877Z,35.63
2022-11-29T15:16:09.541Z,38.08
2022-11-29T15:21:25.516Z,38.15
2022-11-29T15:26:29.844Z,37.92
2022-11-29T15:31:35.429Z,38.42
2022-11-29T15:36:44.798Z,37.65
2022-11-29T15:41:48.926Z,42.92
2022-11-29T15:46:54.376Z,48.83
2022-11-29T15:52:06.444Z,48.28
2022-11-29T15:57:16.966Z,58.25
2022-11-29T16:02:26.042Z,79.82
2022-11-29T16:07:34.310Z,46.35
2022-11-29T16:12:53.113Z,37.55
2022-11-29T16:18:04.373Z,38.22
2022-11-29T16:23:15.169Z,36.22
2022-11-29T16:28:20.317Z,40.75
2022-11-29T16:33:26.124Z,37.93
2022-11-29T16:38:30.468Z,40.30
2022-11-29T16:43:50.794Z,38.00
2022-11-29T16:48:58.129Z,40.67
2022-11-29T16:54:21.651Z,39.88
2022-11-29T16:59:28.419Z,33.97
2022-11-29T17:04:33.975Z,35.17
2022-11-29T17:09:37.988Z,34.88
2022-11-29T17:14:41.932Z,33.55
2022-11-29T17:19:47.188Z,36.83
2022-11-29T17:24:51.374Z,43.45
2022-11-29T17:29:55.530Z,40.63
2022-11-29T17:35:00.739Z,39.60
2022-11-29T17:40:05.396Z,45.65
2022-11-29T17:45:10.030Z,35.05
2022-11-29T17:50:15.268Z,31.45
2022-11-29T17:55:20.792Z,35.10
2022-11-29T18:00:25.440Z,43.90
2022-11-29T18:05:34.584Z,34.85
2022-11-29T18:10:38.808Z,32.33
2022-11-29T18:15:42.822Z,35.92
2022-11-29T18:20:48.183Z,40.38
2022-11-29T18:25:57.147Z,36.88
2022-11-29T18:31:07.506Z,33.70
2022-11-29T18:36:14.891Z,41.80
2022-11-29T18:41:25.612Z,34.00
2022-11-29T18:46:32.505Z,34.45
2022-11-29T18:51:42.013Z,30.10
2022-11-29T18:56:46.967Z,35.00
2022-11-29T19:01:51.157Z,32.20
2022-11-29T19:06:56.835Z,33.83
2022-11-29T19:12:02.430Z,26.48
2022-11-29T19:17:06.550Z,30.30
2022-11-29T19:22:12.455Z,31.40
2022-11-29T19:27:21.447Z,35.03
2022-11-29T19:32:26.710Z,30.23
2022-11-29T19:37:32.396Z,35.08
2022-11-29T19:42:37.474Z,34.88
2022-11-29T19:47:43.976Z,31.53
2022-11-29T19:52:49.345Z,32.42
2022-11-29T19:57:53.454Z,35.13
2022-11-29T20:02:57.514Z,26.50
2022-11-29T20:08:03.807Z,31.08
2022-11-29T20:13:07.971Z,32.50
2022-11-29T20:18:13.188Z,32.60
2022-11-29T20:23:18.549Z,42.53
2022-11-29T20:28:22.724Z,33.80
2022-11-29T20:33:27.050Z,35.30
2022-11-29T20:38:40.599Z,26.95
2022-11-29T20:43:51.795Z,31.33
2022-11-29T20:49:01.702Z,33.72
2022-11-29T20:54:12.229Z,28.02
2022-11-29T20:59:19.938Z,29.95
2022-11-29T21:04:26.001Z,30.75
2022-11-29T21:09:31.701Z,25.95
2022-11-29T21:19:40.608Z,28.73
2022-11-29T21:24:59.480Z,24.05
2022-11-29T21:30:21.458Z,27.02
2022-11-29T21:35:27.375Z,28.83
2022-11-29T21:40:33.077Z,21.92
2022-11-29T21:45:37.072Z,26.75
2022-11-29T21:50:41.327Z,27.25
2022-11-29T21:55:46.943Z,27.77
2022-11-29T22:00:50.993Z,28.05
2022-11-29T22:06:02.453Z,25.33
2022-11-29T22:11:09.981Z,30.30
2022-11-29T22:16:14.711Z,27.85
2022-11-29T22:21:18.702Z,29.08
2022-11-29T22:26:24.260Z,36.45
2022-11-29T22:31:28.643Z,37.65
2022-11-29T22:36:33.137Z,27.25
2022-11-29T22:41:41.788Z,42.08
2022-11-29T22:46:46.839Z,30.75
2022-11-29T22:51:52.438Z,34.45
2022-11-29T22:56:57.800Z,31.58
2022-11-29T23:02:01.846Z,28.42
2022-11-29T23:07:07.556Z,29.42
2022-11-29T23:12:16.183Z,21.30
2022-11-29T23:17:21.234Z,27.50
2022-11-29T23:22:25.230Z,27.75
2022-11-29T23:27:30.690Z,27.02
2022-11-29T23:32:34.727Z,29.83
2022-11-29T23:37:38.803Z,31.63
2022-11-29T23:42:52.187Z,27.83
2022-11-29T23:47:58.864Z,20.67
2022-11-29T23:53:03.539Z,19.77
2022-11-29T23:58:09.306Z,22.10
